sensor_id;sensor_type;location;lat;lon;timestamp;P1;durP1;ratioP1;P2;durP2;ratioP2
68319;SDS011;55168;51.120;17.024;2023-05-29T00:00:00;6.3;;;4.5;;
68319;SDS011;55168;51.120;17.024;2023-05-29T00:01:00;6.3;;;4.5;;
68319;SDS011;55168;51.120;17.024;2023-05-29T00:02:00;6.7;;;4.7;;
68319;SDS011;55168;51.120;17.024;2023-05-29T00:03:00;6.7;;;4.7;;
68319;SDS011;55168;51.120;17.024;2023-05-29T00:04:00;6.7;;;4.7;;
68319;SDS011;55168;51.120;17.024;2023-05-29T00:05:00;6.7;;;4.7;;
68319;SDS011;55168;51.120;17.024;2023-05-29T00:06:02;6.7;;;4.7;;
68319;SDS011;55168;51.120;17.024;2023-05-29T00:07:00;7.6;;;5.0;;
68319;SDS011;55168;51.120;17.024;2023-05-29T00:08:00;7.6;;;5.0;;
68319;SDS011;55168;51.120;17.024;2023-05-29T00:09:00;7.6;;;5.0;;
68319;SDS011;55168;51.120;17.024;2023-05-29T00:10:00;7.6;;;5.0;;
68319;SDS011;55168;51.120;17.024;2023-05-29T00:11:00;7.6;;;5.0;;
68319;SDS011;55168;51.120;17.024;2023-05-29T00:12:00;7.7;;;4.7;;
68319;SDS011;55168;51.120;17.024;2023-05-29T00:13:00;7.7;;;4.7;;
68319;SDS011;55168;51.120;17.024;2023-05-29T00:14:00;7.7;;;4.7;;
68319;SDS011;55168;51.120;17.024;2023-05-29T00:15:00;7.7;;;4.7;;
68319;SDS011;55168;51.120;17.024;2023-05-29T00:16:00;7.7;;;4.7;;
68319;SDS011;55168;51.120;17.024;2023-05-29T00:17:00;8.5;;;5.0;;
68319;SDS011;55168;51.120;17.024;2023-05-29T00:18:00;8.5;;;5.0;;
68319;SDS011;55168;51.120;17.024;2023-05-29T00:19:00;8.5;;;5.0;;
68319;SDS011;55168;51.120;17.024;2023-05-29T00:20:01;8.5;;;5.0;;
68319;SDS011;55168;51.120;17.024;2023-05-29T00:21:00;8.5;;;5.0;;
68319;SDS011;55168;51.120;17.024;2023-05-29T00:22:00;6.6;;;5.0;;
68319;SDS011;55168;51.120;17.024;2023-05-29T00:23:00;6.6;;;5.0;;
68319;SDS011;55168;51.120;17.024;2023-05-29T00:24:00;6.6;;;5.0;;
68319;SDS011;55168;51.120;17.024;2023-05-29T00:25:00;6.6;;;5.0;;
68319;SDS011;55168;51.120;17.024;2023-05-29T00:26:00;6.6;;;5.0;;
68319;SDS011;55168;51.120;17.024;2023-05-29T00:27:00;6.5;;;4.8;;
68319;SDS011;55168;51.120;17.024;2023-05-29T00:28:00;6.5;;;4.8;;
68319;SDS011;55168;51.120;17.024;2023-05-29T00:29:00;6.5;;;4.8;;
68319;SDS011;55168;51.120;17.024;2023-05-29T00:30:01;6.5;;;4.8;;
68319;SDS011;55168;51.120;17.024;2023-05-29T00:31:00;6.5;;;4.8;;
68319;SDS011;55168;51.120;17.024;2023-05-29T00:32:00;6.4;;;4.7;;
68319;SDS011;55168;51.120;17.024;2023-05-29T00:33:00;6.4;;;4.7;;
68319;SDS011;55168;51.120;17.024;2023-05-29T00:34:00;6.4;;;4.7;;
68319;SDS011;55168;51.120;17.024;2023-05-29T00:35:00;6.4;;;4.7;;
68319;SDS011;55168;51.120;17.024;2023-05-29T00:36:00;6.4;;;4.7;;
68319;SDS011;55168;51.120;17.024;2023-05-29T00:37:00;7.0;;;5.0;;
68319;SDS011;55168;51.120;17.024;2023-05-29T00:38:00;7.0;;;5.0;;
68319;SDS011;55168;51.120;17.024;2023-05-29T00:39:00;7.0;;;5.0;;
68319;SDS011;55168;51.120;17.024;2023-05-29T00:40:00;7.0;;;5.0;;
68319;SDS011;55168;51.120;17.024;2023-05-29T00:41:00;7.0;;;5.0;;
68319;SDS011;55168;51.120;17.024;2023-05-29T00:42:00;7.2;;;5.1;;
68319;SDS011;55168;51.120;17.024;2023-05-29T00:43:00;7.2;;;5.1;;
68319;SDS011;55168;51.120;17.024;2023-05-29T00:44:00;7.2;;;5.1;;
68319;SDS011;55168;51.120;17.024;2023-05-29T00:45:00;7.2;;;5.1;;
68319;SDS011;55168;51.120;17.024;2023-05-29T00:46:00;7.2;;;5.1;;
68319;SDS011;55168;51.120;17.024;2023-05-29T00:47:00;8.9;;;5.2;;
68319;SDS011;55168;51.120;17.024;2023-05-29T00:48:00;8.9;;;5.2;;
68319;SDS011;55168;51.120;17.024;2023-05-29T00:49:01;8.9;;;5.2;;
68319;SDS011;55168;51.120;17.024;2023-05-29T00:50:01;8.9;;;5.2;;
68319;SDS011;55168;51.120;17.024;2023-05-29T00:51:00;8.9;;;5.2;;
68319;SDS011;55168;51.120;17.024;2023-05-29T00:52:01;9.4;;;5.2;;
68319;SDS011;55168;51.120;17.024;2023-05-29T00:53:01;9.4;;;5.2;;
68319;SDS011;55168;51.120;17.024;2023-05-29T00:54:00;9.4;;;5.2;;
68319;SDS011;55168;51.120;17.024;2023-05-29T00:55:00;9.4;;;5.2;;
68319;SDS011;55168;51.120;17.024;2023-05-29T00:56:01;9.4;;;5.2;;
68319;SDS011;55168;51.120;17.024;2023-05-29T00:57:01;7.6;;;5.0;;
68319;SDS011;55168;51.120;17.024;2023-05-29T00:58:00;7.6;;;5.0;;
68319;SDS011;55168;51.120;17.024;2023-05-29T00:59:00;7.6;;;5.0;;
68319;SDS011;55168;51.120;17.024;2023-05-29T01:00:02;7.6;;;5.0;;
68319;SDS011;55168;51.120;17.024;2023-05-29T01:01:01;7.6;;;5.0;;
68319;SDS011;55168;51.120;17.024;2023-05-29T01:02:01;8.3;;;5.1;;
68319;SDS011;55168;51.120;17.024;2023-05-29T01:03:03;8.3;;;5.1;;
68319;SDS011;55168;51.120;17.024;2023-05-29T01:04:00;8.3;;;5.1;;
68319;SDS011;55168;51.120;17.024;2023-05-29T01:05:00;8.3;;;5.1;;
68319;SDS011;55168;51.120;17.024;2023-05-29T01:06:00;8.3;;;5.1;;
68319;SDS011;55168;51.120;17.024;2023-05-29T01:07:01;6.8;;;4.9;;
68319;SDS011;55168;51.120;17.024;2023-05-29T01:08:00;6.8;;;4.9;;
68319;SDS011;55168;51.120;17.024;2023-05-29T01:09:00;6.8;;;4.9;;
68319;SDS011;55168;51.120;17.024;2023-05-29T01:10:00;6.8;;;4.9;;
68319;SDS011;55168;51.120;17.024;2023-05-29T01:11:08;5.9;;;4.8;;
68319;SDS011;55168;51.120;17.024;2023-05-29T01:13:08;5.9;;;4.8;;
68319;SDS011;55168;51.120;17.024;2023-05-29T01:14:05;5.9;;;4.8;;
68319;SDS011;55168;51.120;17.024;2023-05-29T01:15:08;5.9;;;4.8;;
68319;SDS011;55168;51.120;17.024;2023-05-29T01:16:08;6.5;;;5.1;;
68319;SDS011;55168;51.120;17.024;2023-05-29T01:17:09;6.5;;;5.1;;
68319;SDS011;55168;51.120;17.024;2023-05-29T01:18:12;6.5;;;5.1;;
68319;SDS011;55168;51.120;17.024;2023-05-29T01:19:09;6.5;;;5.1;;
68319;SDS011;55168;51.120;17.024;2023-05-29T01:20:08;6.5;;;5.1;;
68319;SDS011;55168;51.120;17.024;2023-05-29T01:21:07;7.4;;;5.2;;
68319;SDS011;55168;51.120;17.024;2023-05-29T01:22:07;7.4;;;5.2;;
68319;SDS011;55168;51.120;17.024;2023-05-29T01:24:03;7.4;;;5.2;;
68319;SDS011;55168;51.120;17.024;2023-05-29T01:25:14;7.4;;;5.2;;
68319;SDS011;55168;51.120;17.024;2023-05-29T01:27:03;8.8;;;5.3;;
68319;SDS011;55168;51.120;17.024;2023-05-29T01:28:01;8.8;;;5.3;;
68319;SDS011;55168;51.120;17.024;2023-05-29T01:29:02;8.8;;;5.3;;
68319;SDS011;55168;51.120;17.024;2023-05-29T01:30:02;8.8;;;5.3;;
68319;SDS011;55168;51.120;17.024;2023-05-29T01:31:00;8.8;;;5.3;;
68319;SDS011;55168;51.120;17.024;2023-05-29T01:32:01;6.0;;;4.9;;
68319;SDS011;55168;51.120;17.024;2023-05-29T01:33:00;6.0;;;4.9;;
68319;SDS011;55168;51.120;17.024;2023-05-29T01:34:00;6.0;;;4.9;;
68319;SDS011;55168;51.120;17.024;2023-05-29T01:35:00;6.0;;;4.9;;
68319;SDS011;55168;51.120;17.024;2023-05-29T01:36:00;6.0;;;4.9;;
68319;SDS011;55168;51.120;17.024;2023-05-29T01:37:00;7.0;;;5.0;;
68319;SDS011;55168;51.120;17.024;2023-05-29T01:38:00;7.0;;;5.0;;
68319;SDS011;55168;51.120;17.024;2023-05-29T01:39:00;7.0;;;5.0;;
68319;SDS011;55168;51.120;17.024;2023-05-29T01:40:00;7.0;;;5.0;;
68319;SDS011;55168;51.120;17.024;2023-05-29T01:41:01;7.0;;;5.0;;
68319;SDS011;55168;51.120;17.024;2023-05-29T01:42:01;5.5;;;4.9;;
68319;SDS011;55168;51.120;17.024;2023-05-29T01:43:01;5.5;;;4.9;;
68319;SDS011;55168;51.120;17.024;2023-05-29T01:44:03;5.5;;;4.9;;
68319;SDS011;55168;51.120;17.024;2023-05-29T01:45:01;5.5;;;4.9;;
68319;SDS011;55168;51.120;17.024;2023-05-29T01:46:00;5.5;;;4.9;;
68319;SDS011;55168;51.120;17.024;2023-05-29T01:47:02;6.1;;;5.0;;
68319;SDS011;55168;51.120;17.024;2023-05-29T01:48:00;6.1;;;5.0;;
68319;SDS011;55168;51.120;17.024;2023-05-29T01:49:00;6.1;;;5.0;;
68319;SDS011;55168;51.120;17.024;2023-05-29T01:50:01;6.1;;;5.0;;
68319;SDS011;55168;51.120;17.024;2023-05-29T01:51:00;7.3;;;5.1;;
68319;SDS011;55168;51.120;17.024;2023-05-29T01:52:00;7.3;;;5.1;;
68319;SDS011;55168;51.120;17.024;2023-05-29T01:53:00;7.3;;;5.1;;
68319;SDS011;55168;51.120;17.024;2023-05-29T01:54:00;7.3;;;5.1;;
68319;SDS011;55168;51.120;17.024;2023-05-29T01:55:00;7.3;;;5.1;;
68319;SDS011;55168;51.120;17.024;2023-05-29T01:56:01;8.5;;;5.4;;
68319;SDS011;55168;51.120;17.024;2023-05-29T01:57:01;8.5;;;5.4;;
68319;SDS011;55168;51.120;17.024;2023-05-29T01:58:01;8.5;;;5.4;;
68319;SDS011;55168;51.120;17.024;2023-05-29T01:59:02;8.5;;;5.4;;
68319;SDS011;55168;51.120;17.024;2023-05-29T02:00:02;8.5;;;5.4;;
68319;SDS011;55168;51.120;17.024;2023-05-29T02:01:02;7.3;;;5.4;;
68319;SDS011;55168;51.120;17.024;2023-05-29T02:02:08;7.3;;;5.4;;
68319;SDS011;55168;51.120;17.024;2023-05-29T02:03:00;7.3;;;5.4;;
68319;SDS011;55168;51.120;17.024;2023-05-29T02:04:00;7.3;;;5.4;;
68319;SDS011;55168;51.120;17.024;2023-05-29T02:05:00;7.3;;;5.4;;
68319;SDS011;55168;51.120;17.024;2023-05-29T02:06:00;9.4;;;6.0;;
68319;SDS011;55168;51.120;17.024;2023-05-29T02:07:00;9.4;;;6.0;;
68319;SDS011;55168;51.120;17.024;2023-05-29T02:08:00;9.4;;;6.0;;
68319;SDS011;55168;51.120;17.024;2023-05-29T02:09:00;9.4;;;6.0;;
68319;SDS011;55168;51.120;17.024;2023-05-29T02:10:00;9.4;;;6.0;;
68319;SDS011;55168;51.120;17.024;2023-05-29T02:11:00;8.6;;;5.9;;
68319;SDS011;55168;51.120;17.024;2023-05-29T02:12:00;8.6;;;5.9;;
68319;SDS011;55168;51.120;17.024;2023-05-29T02:13:00;8.6;;;5.9;;
68319;SDS011;55168;51.120;17.024;2023-05-29T02:14:00;8.6;;;5.9;;
68319;SDS011;55168;51.120;17.024;2023-05-29T02:15:00;8.6;;;5.9;;
68319;SDS011;55168;51.120;17.024;2023-05-29T02:16:00;9.2;;;6.0;;
68319;SDS011;55168;51.120;17.024;2023-05-29T02:17:00;9.2;;;6.0;;
68319;SDS011;55168;51.120;17.024;2023-05-29T02:18:00;9.2;;;6.0;;
68319;SDS011;55168;51.120;17.024;2023-05-29T02:19:01;9.2;;;6.0;;
68319;SDS011;55168;51.120;17.024;2023-05-29T02:20:01;9.2;;;6.0;;
68319;SDS011;55168;51.120;17.024;2023-05-29T02:21:00;10.4;;;6.0;;
68319;SDS011;55168;51.120;17.024;2023-05-29T02:22:00;10.4;;;6.0;;
68319;SDS011;55168;51.120;17.024;2023-05-29T02:23:00;10.4;;;6.0;;
68319;SDS011;55168;51.120;17.024;2023-05-29T02:24:00;10.4;;;6.0;;
68319;SDS011;55168;51.120;17.024;2023-05-29T02:25:00;10.4;;;6.0;;
68319;SDS011;55168;51.120;17.024;2023-05-29T02:26:00;10.5;;;6.3;;
68319;SDS011;55168;51.120;17.024;2023-05-29T02:27:00;10.5;;;6.3;;
68319;SDS011;55168;51.120;17.024;2023-05-29T02:28:00;10.5;;;6.3;;
68319;SDS011;55168;51.120;17.024;2023-05-29T02:29:00;10.5;;;6.3;;
68319;SDS011;55168;51.120;17.024;2023-05-29T02:30:00;10.5;;;6.3;;
68319;SDS011;55168;51.120;17.024;2023-05-29T02:31:02;14.2;;;6.7;;
68319;SDS011;55168;51.120;17.024;2023-05-29T02:32:00;14.2;;;6.7;;
68319;SDS011;55168;51.120;17.024;2023-05-29T02:33:00;14.2;;;6.7;;
68319;SDS011;55168;51.120;17.024;2023-05-29T02:34:00;14.2;;;6.7;;
68319;SDS011;55168;51.120;17.024;2023-05-29T02:35:00;14.2;;;6.7;;
68319;SDS011;55168;51.120;17.024;2023-05-29T02:36:00;11.3;;;6.2;;
68319;SDS011;55168;51.120;17.024;2023-05-29T02:37:00;11.3;;;6.2;;
68319;SDS011;55168;51.120;17.024;2023-05-29T02:38:00;11.3;;;6.2;;
68319;SDS011;55168;51.120;17.024;2023-05-29T02:39:00;11.3;;;6.2;;
68319;SDS011;55168;51.120;17.024;2023-05-29T02:40:00;11.3;;;6.2;;
68319;SDS011;55168;51.120;17.024;2023-05-29T02:41:00;13.5;;;6.9;;
68319;SDS011;55168;51.120;17.024;2023-05-29T02:42:00;13.5;;;6.9;;
68319;SDS011;55168;51.120;17.024;2023-05-29T02:43:00;13.5;;;6.9;;
68319;SDS011;55168;51.120;17.024;2023-05-29T02:44:00;13.5;;;6.9;;
68319;SDS011;55168;51.120;17.024;2023-05-29T02:45:00;13.5;;;6.9;;
68319;SDS011;55168;51.120;17.024;2023-05-29T02:46:00;9.7;;;6.9;;
68319;SDS011;55168;51.120;17.024;2023-05-29T02:47:00;9.7;;;6.9;;
68319;SDS011;55168;51.120;17.024;2023-05-29T02:48:00;9.7;;;6.9;;
68319;SDS011;55168;51.120;17.024;2023-05-29T02:49:00;9.7;;;6.9;;
68319;SDS011;55168;51.120;17.024;2023-05-29T02:50:02;9.7;;;6.9;;
68319;SDS011;55168;51.120;17.024;2023-05-29T02:51:00;12.2;;;6.5;;
68319;SDS011;55168;51.120;17.024;2023-05-29T02:52:00;12.2;;;6.5;;
68319;SDS011;55168;51.120;17.024;2023-05-29T02:53:00;12.2;;;6.5;;
68319;SDS011;55168;51.120;17.024;2023-05-29T02:54:00;12.2;;;6.5;;
68319;SDS011;55168;51.120;17.024;2023-05-29T02:55:00;12.2;;;6.5;;
68319;SDS011;55168;51.120;17.024;2023-05-29T02:56:00;10.8;;;6.7;;
68319;SDS011;55168;51.120;17.024;2023-05-29T02:57:00;10.8;;;6.7;;
68319;SDS011;55168;51.120;17.024;2023-05-29T02:58:00;10.8;;;6.7;;
68319;SDS011;55168;51.120;17.024;2023-05-29T02:59:00;10.8;;;6.7;;
68319;SDS011;55168;51.120;17.024;2023-05-29T03:00:01;10.8;;;6.7;;
68319;SDS011;55168;51.120;17.024;2023-05-29T03:01:00;10.4;;;6.5;;
68319;SDS011;55168;51.120;17.024;2023-05-29T03:02:00;10.4;;;6.5;;
68319;SDS011;55168;51.120;17.024;2023-05-29T03:03:00;10.4;;;6.5;;
68319;SDS011;55168;51.120;17.024;2023-05-29T03:04:00;10.4;;;6.5;;
68319;SDS011;55168;51.120;17.024;2023-05-29T03:05:00;10.4;;;6.5;;
68319;SDS011;55168;51.120;17.024;2023-05-29T03:06:00;8.7;;;6.1;;
68319;SDS011;55168;51.120;17.024;2023-05-29T03:07:00;8.7;;;6.1;;
68319;SDS011;55168;51.120;17.024;2023-05-29T03:08:00;8.7;;;6.1;;
68319;SDS011;55168;51.120;17.024;2023-05-29T03:09:00;8.7;;;6.1;;
68319;SDS011;55168;51.120;17.024;2023-05-29T03:10:00;8.7;;;6.1;;
68319;SDS011;55168;51.120;17.024;2023-05-29T03:11:00;8.3;;;6.0;;
68319;SDS011;55168;51.120;17.024;2023-05-29T03:12:00;8.3;;;6.0;;
68319;SDS011;55168;51.120;17.024;2023-05-29T03:13:00;8.3;;;6.0;;
68319;SDS011;55168;51.120;17.024;2023-05-29T03:14:00;8.3;;;6.0;;
68319;SDS011;55168;51.120;17.024;2023-05-29T03:15:00;8.3;;;6.0;;
68319;SDS011;55168;51.120;17.024;2023-05-29T03:16:00;8.6;;;6.2;;
68319;SDS011;55168;51.120;17.024;2023-05-29T03:17:00;8.6;;;6.2;;
68319;SDS011;55168;51.120;17.024;2023-05-29T03:18:00;8.6;;;6.2;;
68319;SDS011;55168;51.120;17.024;2023-05-29T03:19:00;8.6;;;6.2;;
68319;SDS011;55168;51.120;17.024;2023-05-29T03:20:00;8.6;;;6.2;;
68319;SDS011;55168;51.120;17.024;2023-05-29T03:21:00;7.7;;;5.9;;
68319;SDS011;55168;51.120;17.024;2023-05-29T03:22:00;7.7;;;5.9;;
68319;SDS011;55168;51.120;17.024;2023-05-29T03:23:00;7.7;;;5.9;;
68319;SDS011;55168;51.120;17.024;2023-05-29T03:24:00;7.7;;;5.9;;
68319;SDS011;55168;51.120;17.024;2023-05-29T03:25:02;7.7;;;5.9;;
68319;SDS011;55168;51.120;17.024;2023-05-29T03:26:01;8.0;;;5.8;;
68319;SDS011;55168;51.120;17.024;2023-05-29T03:27:00;8.0;;;5.8;;
68319;SDS011;55168;51.120;17.024;2023-05-29T03:28:00;8.0;;;5.8;;
68319;SDS011;55168;51.120;17.024;2023-05-29T03:29:00;8.0;;;5.8;;
68319;SDS011;55168;51.120;17.024;2023-05-29T03:30:00;8.0;;;5.8;;
68319;SDS011;55168;51.120;17.024;2023-05-29T03:31:00;8.7;;;5.7;;
68319;SDS011;55168;51.120;17.024;2023-05-29T03:32:00;8.7;;;5.7;;
68319;SDS011;55168;51.120;17.024;2023-05-29T03:33:00;8.7;;;5.7;;
68319;SDS011;55168;51.120;17.024;2023-05-29T03:34:00;8.7;;;5.7;;
68319;SDS011;55168;51.120;17.024;2023-05-29T03:35:00;8.7;;;5.7;;
68319;SDS011;55168;51.120;17.024;2023-05-29T03:36:00;9.3;;;6.0;;
68319;SDS011;55168;51.120;17.024;2023-05-29T03:37:00;9.3;;;6.0;;
68319;SDS011;55168;51.120;17.024;2023-05-29T03:38:00;9.3;;;6.0;;
68319;SDS011;55168;51.120;17.024;2023-05-29T03:39:00;9.3;;;6.0;;
68319;SDS011;55168;51.120;17.024;2023-05-29T03:40:00;9.3;;;6.0;;
68319;SDS011;55168;51.120;17.024;2023-05-29T03:41:00;8.6;;;5.7;;
68319;SDS011;55168;51.120;17.024;2023-05-29T03:42:00;8.6;;;5.7;;
68319;SDS011;55168;51.120;17.024;2023-05-29T03:43:00;8.6;;;5.7;;
68319;SDS011;55168;51.120;17.024;2023-05-29T03:44:00;8.6;;;5.7;;
68319;SDS011;55168;51.120;17.024;2023-05-29T03:45:00;8.6;;;5.7;;
68319;SDS011;55168;51.120;17.024;2023-05-29T03:46:00;7.9;;;5.5;;
68319;SDS011;55168;51.120;17.024;2023-05-29T03:47:00;7.9;;;5.5;;
68319;SDS011;55168;51.120;17.024;2023-05-29T03:48:00;7.9;;;5.5;;
68319;SDS011;55168;51.120;17.024;2023-05-29T03:49:00;7.9;;;5.5;;
68319;SDS011;55168;51.120;17.024;2023-05-29T03:50:00;7.9;;;5.5;;
68319;SDS011;55168;51.120;17.024;2023-05-29T03:51:00;9.6;;;5.7;;
68319;SDS011;55168;51.120;17.024;2023-05-29T03:52:00;9.6;;;5.7;;
68319;SDS011;55168;51.120;17.024;2023-05-29T03:53:00;9.6;;;5.7;;
68319;SDS011;55168;51.120;17.024;2023-05-29T03:54:00;9.6;;;5.7;;
68319;SDS011;55168;51.120;17.024;2023-05-29T03:55:01;9.6;;;5.7;;
68319;SDS011;55168;51.120;17.024;2023-05-29T03:56:00;8.0;;;5.1;;
68319;SDS011;55168;51.120;17.024;2023-05-29T03:57:00;8.0;;;5.1;;
68319;SDS011;55168;51.120;17.024;2023-05-29T03:58:00;8.0;;;5.1;;
68319;SDS011;55168;51.120;17.024;2023-05-29T03:59:00;8.0;;;5.1;;
68319;SDS011;55168;51.120;17.024;2023-05-29T04:00:00;8.0;;;5.1;;
68319;SDS011;55168;51.120;17.024;2023-05-29T04:01:00;7.0;;;5.3;;
68319;SDS011;55168;51.120;17.024;2023-05-29T04:02:00;7.0;;;5.3;;
68319;SDS011;55168;51.120;17.024;2023-05-29T04:03:00;7.0;;;5.3;;
68319;SDS011;55168;51.120;17.024;2023-05-29T04:04:00;7.0;;;5.3;;
68319;SDS011;55168;51.120;17.024;2023-05-29T04:05:00;7.0;;;5.3;;
68319;SDS011;55168;51.120;17.024;2023-05-29T04:06:01;6.5;;;5.4;;
68319;SDS011;55168;51.120;17.024;2023-05-29T04:07:00;6.5;;;5.4;;
68319;SDS011;55168;51.120;17.024;2023-05-29T04:08:00;6.5;;;5.4;;
68319;SDS011;55168;51.120;17.024;2023-05-29T04:09:00;6.5;;;5.4;;
68319;SDS011;55168;51.120;17.024;2023-05-29T04:10:00;6.5;;;5.4;;
68319;SDS011;55168;51.120;17.024;2023-05-29T04:11:00;11.8;;;6.0;;
68319;SDS011;55168;51.120;17.024;2023-05-29T04:12:00;11.8;;;6.0;;
68319;SDS011;55168;51.120;17.024;2023-05-29T04:13:00;11.8;;;6.0;;
68319;SDS011;55168;51.120;17.024;2023-05-29T04:14:00;11.8;;;6.0;;
68319;SDS011;55168;51.120;17.024;2023-05-29T04:15:00;11.8;;;6.0;;
68319;SDS011;55168;51.120;17.024;2023-05-29T04:16:00;7.8;;;5.4;;
68319;SDS011;55168;51.120;17.024;2023-05-29T04:17:00;7.8;;;5.4;;
68319;SDS011;55168;51.120;17.024;2023-05-29T04:18:00;7.8;;;5.4;;
68319;SDS011;55168;51.120;17.024;2023-05-29T04:19:00;7.8;;;5.4;;
68319;SDS011;55168;51.120;17.024;2023-05-29T04:20:00;7.8;;;5.4;;
68319;SDS011;55168;51.120;17.024;2023-05-29T04:21:00;9.9;;;5.8;;
68319;SDS011;55168;51.120;17.024;2023-05-29T04:22:00;9.9;;;5.8;;
68319;SDS011;55168;51.120;17.024;2023-05-29T04:23:00;9.9;;;5.8;;
68319;SDS011;55168;51.120;17.024;2023-05-29T04:24:00;9.9;;;5.8;;
68319;SDS011;55168;51.120;17.024;2023-05-29T04:25:00;9.9;;;5.8;;
68319;SDS011;55168;51.120;17.024;2023-05-29T04:26:00;9.7;;;5.7;;
68319;SDS011;55168;51.120;17.024;2023-05-29T04:27:00;9.7;;;5.7;;
68319;SDS011;55168;51.120;17.024;2023-05-29T04:28:00;9.7;;;5.7;;
68319;SDS011;55168;51.120;17.024;2023-05-29T04:29:00;9.7;;;5.7;;
68319;SDS011;55168;51.120;17.024;2023-05-29T04:30:00;9.7;;;5.7;;
68319;SDS011;55168;51.120;17.024;2023-05-29T04:31:00;11.9;;;5.7;;
68319;SDS011;55168;51.120;17.024;2023-05-29T04:32:00;11.9;;;5.7;;
68319;SDS011;55168;51.120;17.024;2023-05-29T04:33:00;11.9;;;5.7;;
68319;SDS011;55168;51.120;17.024;2023-05-29T04:34:00;11.9;;;5.7;;
68319;SDS011;55168;51.120;17.024;2023-05-29T04:35:00;11.9;;;5.7;;
68319;SDS011;55168;51.120;17.024;2023-05-29T04:36:00;15.6;;;6.1;;
68319;SDS011;55168;51.120;17.024;2023-05-29T04:37:01;15.6;;;6.1;;
68319;SDS011;55168;51.120;17.024;2023-05-29T04:38:00;15.6;;;6.1;;
68319;SDS011;55168;51.120;17.024;2023-05-29T04:39:00;15.6;;;6.1;;
68319;SDS011;55168;51.120;17.024;2023-05-29T04:40:00;15.6;;;6.1;;
68319;SDS011;55168;51.120;17.024;2023-05-29T04:41:00;14.5;;;5.7;;
68319;SDS011;55168;51.120;17.024;2023-05-29T04:42:00;14.5;;;5.7;;
68319;SDS011;55168;51.120;17.024;2023-05-29T04:43:00;14.5;;;5.7;;
68319;SDS011;55168;51.120;17.024;2023-05-29T04:44:00;14.5;;;5.7;;
68319;SDS011;55168;51.120;17.024;2023-05-29T04:45:00;14.5;;;5.7;;
68319;SDS011;55168;51.120;17.024;2023-05-29T04:46:00;15.1;;;5.9;;
68319;SDS011;55168;51.120;17.024;2023-05-29T04:47:00;15.1;;;5.9;;
68319;SDS011;55168;51.120;17.024;2023-05-29T04:48:00;15.1;;;5.9;;
68319;SDS011;55168;51.120;17.024;2023-05-29T04:49:00;15.1;;;5.9;;
68319;SDS011;55168;51.120;17.024;2023-05-29T04:50:00;15.1;;;5.9;;
68319;SDS011;55168;51.120;17.024;2023-05-29T04:51:00;9.5;;;5.1;;
68319;SDS011;55168;51.120;17.024;2023-05-29T04:52:00;9.5;;;5.1;;
68319;SDS011;55168;51.120;17.024;2023-05-29T04:53:00;9.5;;;5.1;;
68319;SDS011;55168;51.120;17.024;2023-05-29T04:54:00;9.5;;;5.1;;
68319;SDS011;55168;51.120;17.024;2023-05-29T04:55:00;9.5;;;5.1;;
68319;SDS011;55168;51.120;17.024;2023-05-29T04:56:00;10.8;;;5.4;;
68319;SDS011;55168;51.120;17.024;2023-05-29T04:57:00;10.8;;;5.4;;
68319;SDS011;55168;51.120;17.024;2023-05-29T04:58:00;10.8;;;5.4;;
68319;SDS011;55168;51.120;17.024;2023-05-29T04:59:00;10.8;;;5.4;;
68319;SDS011;55168;51.120;17.024;2023-05-29T05:00:00;10.8;;;5.4;;
68319;SDS011;55168;51.120;17.024;2023-05-29T05:01:00;6.7;;;5.1;;
68319;SDS011;55168;51.120;17.024;2023-05-29T05:02:00;6.7;;;5.1;;
68319;SDS011;55168;51.120;17.024;2023-05-29T05:03:00;6.7;;;5.1;;
68319;SDS011;55168;51.120;17.024;2023-05-29T05:04:00;6.7;;;5.1;;
68319;SDS011;55168;51.120;17.024;2023-05-29T05:05:00;6.7;;;5.1;;
68319;SDS011;55168;51.120;17.024;2023-05-29T05:06:00;7.9;;;5.2;;
68319;SDS011;55168;51.120;17.024;2023-05-29T05:07:00;7.9;;;5.2;;
68319;SDS011;55168;51.120;17.024;2023-05-29T05:08:00;7.9;;;5.2;;
68319;SDS011;55168;51.120;17.024;2023-05-29T05:09:00;7.9;;;5.2;;
68319;SDS011;55168;51.120;17.024;2023-05-29T05:10:01;7.9;;;5.2;;
68319;SDS011;55168;51.120;17.024;2023-05-29T05:11:00;7.4;;;5.2;;
68319;SDS011;55168;51.120;17.024;2023-05-29T05:12:00;7.4;;;5.2;;
68319;SDS011;55168;51.120;17.024;2023-05-29T05:13:00;7.4;;;5.2;;
68319;SDS011;55168;51.120;17.024;2023-05-29T05:14:00;7.4;;;5.2;;
68319;SDS011;55168;51.120;17.024;2023-05-29T05:15:00;7.4;;;5.2;;
68319;SDS011;55168;51.120;17.024;2023-05-29T05:16:00;5.7;;;4.8;;
68319;SDS011;55168;51.120;17.024;2023-05-29T05:17:00;5.7;;;4.8;;
68319;SDS011;55168;51.120;17.024;2023-05-29T05:18:00;5.7;;;4.8;;
68319;SDS011;55168;51.120;17.024;2023-05-29T05:19:00;5.7;;;4.8;;
68319;SDS011;55168;51.120;17.024;2023-05-29T05:20:00;5.7;;;4.8;;
68319;SDS011;55168;51.120;17.024;2023-05-29T05:21:00;10.5;;;5.2;;
68319;SDS011;55168;51.120;17.024;2023-05-29T05:22:00;10.5;;;5.2;;
68319;SDS011;55168;51.120;17.024;2023-05-29T05:23:00;10.5;;;5.2;;
68319;SDS011;55168;51.120;17.024;2023-05-29T05:24:00;10.5;;;5.2;;
68319;SDS011;55168;51.120;17.024;2023-05-29T05:25:00;10.5;;;5.2;;
68319;SDS011;55168;51.120;17.024;2023-05-29T05:26:00;10.5;;;5.1;;
68319;SDS011;55168;51.120;17.024;2023-05-29T05:27:00;10.5;;;5.1;;
68319;SDS011;55168;51.120;17.024;2023-05-29T05:28:01;10.5;;;5.1;;
68319;SDS011;55168;51.120;17.024;2023-05-29T05:29:00;10.5;;;5.1;;
68319;SDS011;55168;51.120;17.024;2023-05-29T05:30:01;10.5;;;5.1;;
68319;SDS011;55168;51.120;17.024;2023-05-29T05:31:00;7.8;;;4.8;;
68319;SDS011;55168;51.120;17.024;2023-05-29T05:32:00;7.8;;;4.8;;
68319;SDS011;55168;51.120;17.024;2023-05-29T05:33:00;7.8;;;4.8;;
68319;SDS011;55168;51.120;17.024;2023-05-29T05:34:00;7.8;;;4.8;;
68319;SDS011;55168;51.120;17.024;2023-05-29T05:35:00;7.8;;;4.8;;
68319;SDS011;55168;51.120;17.024;2023-05-29T05:36:00;8.3;;;4.6;;
68319;SDS011;55168;51.120;17.024;2023-05-29T05:37:00;8.3;;;4.6;;
68319;SDS011;55168;51.120;17.024;2023-05-29T05:38:00;8.3;;;4.6;;
68319;SDS011;55168;51.120;17.024;2023-05-29T05:39:00;8.3;;;4.6;;
68319;SDS011;55168;51.120;17.024;2023-05-29T05:40:00;8.3;;;4.6;;
68319;SDS011;55168;51.120;17.024;2023-05-29T05:41:00;7.2;;;4.6;;
68319;SDS011;55168;51.120;17.024;2023-05-29T05:42:00;7.2;;;4.6;;
68319;SDS011;55168;51.120;17.024;2023-05-29T05:43:00;7.2;;;4.6;;
68319;SDS011;55168;51.120;17.024;2023-05-29T05:44:00;7.2;;;4.6;;
68319;SDS011;55168;51.120;17.024;2023-05-29T05:45:00;7.2;;;4.6;;
68319;SDS011;55168;51.120;17.024;2023-05-29T05:46:00;9.6;;;5.0;;
68319;SDS011;55168;51.120;17.024;2023-05-29T05:47:00;9.6;;;5.0;;
68319;SDS011;55168;51.120;17.024;2023-05-29T05:48:00;9.6;;;5.0;;
68319;SDS011;55168;51.120;17.024;2023-05-29T05:49:00;9.6;;;5.0;;
68319;SDS011;55168;51.120;17.024;2023-05-29T05:50:00;9.6;;;5.0;;
68319;SDS011;55168;51.120;17.024;2023-05-29T05:51:00;14.2;;;5.9;;
68319;SDS011;55168;51.120;17.024;2023-05-29T05:52:00;14.2;;;5.9;;
68319;SDS011;55168;51.120;17.024;2023-05-29T05:53:01;14.2;;;5.9;;
68319;SDS011;55168;51.120;17.024;2023-05-29T05:54:00;14.2;;;5.9;;
68319;SDS011;55168;51.120;17.024;2023-05-29T05:55:00;14.2;;;5.9;;
68319;SDS011;55168;51.120;17.024;2023-05-29T05:56:00;9.7;;;5.2;;
68319;SDS011;55168;51.120;17.024;2023-05-29T05:57:00;9.7;;;5.2;;
68319;SDS011;55168;51.120;17.024;2023-05-29T05:58:00;9.7;;;5.2;;
68319;SDS011;55168;51.120;17.024;2023-05-29T05:59:00;9.7;;;5.2;;
68319;SDS011;55168;51.120;17.024;2023-05-29T06:00:01;9.7;;;5.2;;
68319;SDS011;55168;51.120;17.024;2023-05-29T06:01:00;12.1;;;5.1;;
68319;SDS011;55168;51.120;17.024;2023-05-29T06:02:00;12.1;;;5.1;;
68319;SDS011;55168;51.120;17.024;2023-05-29T06:03:00;12.1;;;5.1;;
68319;SDS011;55168;51.120;17.024;2023-05-29T06:04:00;12.1;;;5.1;;
68319;SDS011;55168;51.120;17.024;2023-05-29T06:05:00;12.1;;;5.1;;
68319;SDS011;55168;51.120;17.024;2023-05-29T06:06:00;7.6;;;4.7;;
68319;SDS011;55168;51.120;17.024;2023-05-29T06:07:00;7.6;;;4.7;;
68319;SDS011;55168;51.120;17.024;2023-05-29T06:08:00;7.6;;;4.7;;